createdAt,value
2019-01-31T00:00:20.453Z,0.00
2019-01-31T00:01:20.429Z,0.00
2019-01-31T00:02:20.433Z,0.00
2019-01-31T00:03:20.430Z,0.00
2019-01-31T00:04:20.400Z,0.00
2019-01-31T00:05:20.410Z,0.00
2019-01-31T00:06:20.381Z,0.00
2019-01-31T00:07:20.370Z,0.00
2019-01-31T00:08:20.374Z,0.00
2019-01-31T00:09:20.346Z,0.00
2019-01-31T00:10:20.343Z,0.00
2019-01-31T00:11:20.319Z,0.00
2019-01-31T00:12:20.321Z,0.00
2019-01-31T00:13:20.298Z,0.00
2019-01-31T00:14:20.287Z,0.00
2019-01-31T00:15:20.285Z,0.00
2019-01-31T00:16:20.266Z,0.00
2019-01-31T00:17:20.254Z,0.00
2019-01-31T00:18:20.245Z,0.00
2019-01-31T00:19:20.256Z,0.00
2019-01-31T00:20:20.231Z,0.00
2019-01-31T00:21:20.218Z,0.00
2019-01-31T00:22:20.214Z,0.00
2019-01-31T00:23:20.192Z,0.00
2019-01-31T00:24:20.178Z,0.00
2019-01-31T00:25:20.180Z,0.00
2019-01-31T00:26:20.161Z,0.00
2019-01-31T00:27:20.145Z,0.00
2019-01-31T00:28:20.145Z,0.00
2019-01-31T00:29:20.124Z,0.00
2019-01-31T00:30:20.125Z,0.00
2019-01-31T00:31:20.120Z,0.00
2019-01-31T00:32:20.095Z,0.00
2019-01-31T00:33:20.078Z,0.00
2019-01-31T00:34:20.072Z,0.00
2019-01-31T00:35:20.070Z,0.00
2019-01-31T00:36:20.107Z,0.00
2019-01-31T00:37:20.034Z,0.00
2019-01-31T00:38:20.023Z,0.00
2019-01-31T00:39:20.014Z,0.00
2019-01-31T00:40:20.029Z,0.00
2019-01-31T00:41:20.040Z,0.00
2019-01-31T00:42:20.008Z,0.00
2019-01-31T00:43:19.969Z,0.00
2019-01-31T00:44:19.968Z,0.00
2019-01-31T00:45:19.945Z,0.00
2019-01-31T00:46:19.946Z,0.00
2019-01-31T00:47:19.934Z,0.00
2019-01-31T00:48:19.916Z,0.00
2019-01-31T00:49:19.910Z,0.00
2019-01-31T00:50:19.900Z,0.00
2019-01-31T00:51:19.895Z,0.00
2019-01-31T00:52:19.870Z,0.00
2019-01-31T00:53:19.858Z,0.00
2019-01-31T00:54:19.849Z,0.00
2019-01-31T00:55:19.852Z,0.00
2019-01-31T00:56:19.841Z,0.00
2019-01-31T00:57:19.872Z,0.00
2019-01-31T00:58:19.805Z,0.00
2019-01-31T00:59:19.795Z,0.00
2019-01-31T01:00:19.791Z,0.00
2019-01-31T01:01:19.787Z,0.00
2019-01-31T01:02:19.758Z,0.00
2019-01-31T01:03:19.755Z,0.00
2019-01-31T01:04:19.738Z,0.00
2019-01-31T01:05:19.757Z,0.00
2019-01-31T01:06:19.729Z,0.00
2019-01-31T01:07:19.729Z,0.00
2019-01-31T01:08:19.693Z,0.00
2019-01-31T01:09:19.691Z,0.00
2019-01-31T01:10:19.671Z,0.00
2019-01-31T01:11:19.698Z,0.00
2019-01-31T01:12:19.648Z,0.00
2019-01-31T01:13:19.641Z,0.00
2019-01-31T01:14:19.690Z,0.00
2019-01-31T01:15:19.618Z,0.00
2019-01-31T01:16:19.634Z,0.00
2019-01-31T01:17:19.608Z,0.00
2019-01-31T01:18:19.583Z,0.00
2019-01-31T01:19:27.097Z,0.00
2019-01-31T01:20:26.571Z,0.00
2019-01-31T01:21:19.550Z,0.00
2019-01-31T01:22:28.529Z,0.00
2019-01-31T01:23:19.529Z,0.00
2019-01-31T01:24:19.517Z,0.00
2019-01-31T01:25:19.505Z,0.00
2019-01-31T01:26:19.497Z,0.00
2019-01-31T01:27:19.512Z,0.00
2019-01-31T01:28:19.473Z,0.00
2019-01-31T01:29:19.467Z,0.00
2019-01-31T01:30:19.451Z,0.00
2019-01-31T01:31:19.439Z,0.00
2019-01-31T01:32:19.446Z,0.00
2019-01-31T01:33:19.449Z,0.00
2019-01-31T01:34:19.411Z,0.00
2019-01-31T01:35:19.396Z,0.00
2019-01-31T01:36:19.386Z,0.00
2019-01-31T01:37:19.407Z,0.00
2019-01-31T01:38:19.366Z,0.00
2019-01-31T01:39:19.621Z,0.00
2019-01-31T01:40:19.367Z,0.00
2019-01-31T01:41:19.330Z,0.00
2019-01-31T01:42:19.344Z,0.00
2019-01-31T01:43:19.307Z,0.00
2019-01-31T01:44:19.296Z,0.00
2019-01-31T01:45:19.292Z,0.00
2019-01-31T01:46:19.293Z,0.00
2019-01-31T01:47:19.285Z,0.00
2019-01-31T01:48:19.252Z,0.00
2019-01-31T01:49:19.241Z,0.00
2019-01-31T01:50:19.249Z,0.00
2019-01-31T01:51:19.229Z,0.00
2019-01-31T01:52:19.224Z,0.00
2019-01-31T01:53:19.258Z,0.00
2019-01-31T01:54:19.205Z,0.00
2019-01-31T01:55:19.175Z,0.00
2019-01-31T01:56:19.167Z,0.00
2019-01-31T01:57:19.181Z,0.00
2019-01-31T01:58:19.144Z,0.00
2019-01-31T01:59:19.132Z,0.00
2019-01-31T02:00:19.124Z,0.00
2019-01-31T02:01:19.390Z,0.00
2019-01-31T02:02:19.114Z,0.00
2019-01-31T02:03:19.102Z,0.00
2019-01-31T02:04:19.091Z,0.00
2019-01-31T02:05:19.066Z,0.00
2019-01-31T02:06:19.054Z,0.00
2019-01-31T02:07:19.063Z,0.00
2019-01-31T02:08:19.042Z,0.00
2019-01-31T02:09:29.725Z,0.00
2019-01-31T02:10:20.033Z,0.00
2019-01-31T02:11:19.006Z,0.00
2019-01-31T02:12:19.028Z,0.00
2019-01-31T02:13:19.007Z,0.00
2019-01-31T02:14:18.966Z,0.00
2019-01-31T02:15:18.960Z,0.00
2019-01-31T02:16:18.971Z,0.00
2019-01-31T02:17:18.972Z,0.00
2019-01-31T02:18:18.936Z,0.00
2019-01-31T02:19:18.928Z,0.00
2019-01-31T02:20:18.911Z,0.00
2019-01-31T02:21:18.892Z,0.00
2019-01-31T02:22:18.914Z,0.00
2019-01-31T02:23:18.890Z,0.00
2019-01-31T02:24:18.856Z,0.00
2019-01-31T02:25:18.850Z,0.00
2019-01-31T02:26:18.882Z,0.00
2019-01-31T02:27:18.827Z,0.00
2019-01-31T02:28:18.827Z,0.00
2019-01-31T02:29:18.812Z,0.00
2019-01-31T02:30:18.793Z,0.00
2019-01-31T02:31:18.779Z,0.00
2019-01-31T02:32:18.771Z,0.00
2019-01-31T02:33:18.877Z,0.00
2019-01-31T02:34:18.766Z,0.00
2019-01-31T02:35:18.742Z,0.00
2019-01-31T02:36:18.743Z,0.00
2019-01-31T02:37:18.717Z,0.00
2019-01-31T02:38:18.721Z,0.00
2019-01-31T02:39:18.694Z,0.00
2019-01-31T02:40:18.681Z,0.00
2019-01-31T02:41:18.670Z,0.00
2019-01-31T02:42:18.670Z,0.00
2019-01-31T02:43:18.695Z,0.00
2019-01-31T02:44:18.640Z,0.00
2019-01-31T02:45:18.641Z,0.00
2019-01-31T02:46:18.615Z,0.00
2019-01-31T02:47:18.611Z,0.00
2019-01-31T02:48:18.645Z,0.00
2019-01-31T02:49:18.584Z,0.00
2019-01-31T02:50:18.580Z,0.00
2019-01-31T02:51:18.569Z,0.00
2019-01-31T02:52:18.573Z,0.00
2019-01-31T02:53:18.568Z,0.00
2019-01-31T02:54:18.530Z,0.00
2019-01-31T02:55:18.521Z,0.00
2019-01-31T02:56:18.542Z,0.00
2019-01-31T02:57:18.499Z,0.00
2019-01-31T02:58:18.484Z,0.00
2019-01-31T02:59:18.517Z,0.00
2019-01-31T03:00:18.461Z,0.00
2019-01-31T03:01:18.460Z,0.00
2019-01-31T03:02:18.441Z,0.00
2019-01-31T03:03:18.427Z,0.00
2019-01-31T03:04:18.436Z,0.00
2019-01-31T03:05:18.430Z,0.00
2019-01-31T03:06:18.395Z,0.00
2019-01-31T03:07:18.383Z,0.00
2019-01-31T03:08:18.377Z,0.00
2019-01-31T03:09:18.393Z,0.00
2019-01-31T03:10:18.363Z,0.00
2019-01-31T03:11:18.340Z,0.00
2019-01-31T03:12:18.333Z,0.00
2019-01-31T03:13:18.320Z,0.00
2019-01-31T03:14:18.321Z,0.00
2019-01-31T03:15:18.298Z,0.00
2019-01-31T03:16:18.291Z,0.00
2019-01-31T03:17:18.304Z,0.00
2019-01-31T03:18:18.262Z,0.00
2019-01-31T03:19:18.269Z,0.00
2019-01-31T03:20:18.254Z,0.00
2019-01-31T03:21:18.235Z,0.00
2019-01-31T03:22:18.237Z,0.00
2019-01-31T03:23:18.209Z,0.00
2019-01-31T03:24:18.247Z,0.00
2019-01-31T03:25:18.200Z,0.00
2019-01-31T03:26:18.178Z,0.00
2019-01-31T03:27:18.167Z,0.00
2019-01-31T03:28:18.152Z,0.00
2019-01-31T03:29:18.154Z,0.00
2019-01-31T03:30:18.164Z,0.00
2019-01-31T03:31:18.130Z,0.00
2019-01-31T03:32:18.116Z,0.00
2019-01-31T03:33:18.108Z,0.00
2019-01-31T03:34:18.131Z,0.00
2019-01-31T03:35:18.076Z,0.00
2019-01-31T03:36:18.070Z,0.00
2019-01-31T03:37:18.054Z,0.00
2019-01-31T03:38:18.158Z,0.00
2019-01-31T03:39:18.063Z,0.00
2019-01-31T03:40:18.028Z,0.00
2019-01-31T03:41:18.011Z,0.00
2019-01-31T03:42:18.009Z,0.00
2019-01-31T03:43:18.001Z,0.00
2019-01-31T03:44:17.987Z,0.00
2019-01-31T03:45:17.977Z,0.00
2019-01-31T03:46:17.960Z,0.00
2019-01-31T03:47:17.943Z,0.00
2019-01-31T03:48:17.942Z,0.00
2019-01-31T03:49:17.940Z,0.00
2019-01-31T03:50:17.920Z,0.00
2019-01-31T03:51:17.901Z,0.00
2019-01-31T03:52:17.890Z,0.00
2019-01-31T03:53:17.887Z,0.00
2019-01-31T03:54:17.866Z,0.00
2019-01-31T03:55:17.919Z,0.00
2019-01-31T03:56:17.853Z,0.00
2019-01-31T03:57:17.833Z,0.00
2019-01-31T03:58:17.825Z,0.00
2019-01-31T03:59:17.812Z,0.00
2019-01-31T04:00:17.851Z,0.00
2019-01-31T04:01:17.804Z,0.00
2019-01-31T04:02:17.785Z,0.00
2019-01-31T04:03:17.768Z,0.00
2019-01-31T04:04:17.772Z,0.00
2019-01-31T04:05:17.764Z,0.00
2019-01-31T04:06:17.753Z,0.00
2019-01-31T04:07:17.744Z,0.00
2019-01-31T04:08:17.717Z,0.00
2019-01-31T04:09:17.703Z,0.00
2019-01-31T04:10:19.013Z,0.00
2019-01-31T04:11:17.682Z,0.00
2019-01-31T04:12:17.679Z,0.00
2019-01-31T04:13:17.673Z,0.00
2019-01-31T04:14:17.646Z,0.00
2019-01-31T04:15:17.645Z,0.00
2019-01-31T04:16:17.633Z,0.00
2019-01-31T04:17:17.617Z,0.00
2019-01-31T04:18:17.628Z,0.00
2019-01-31T04:19:17.646Z,0.00
2019-01-31T04:20:17.624Z,0.00
2019-01-31T04:21:17.572Z,0.00
2019-01-31T04:22:17.566Z,0.00
2019-01-31T04:23:17.579Z,0.00
2019-01-31T04:24:17.543Z,0.00
2019-01-31T04:25:17.526Z,0.00
2019-01-31T04:26:17.530Z,0.00
2019-01-31T04:27:17.503Z,0.00
2019-01-31T04:28:17.493Z,0.00
2019-01-31T04:29:17.483Z,0.00
2019-01-31T04:30:17.507Z,0.00
2019-01-31T04:31:17.489Z,0.00
2019-01-31T04:32:17.461Z,0.00
2019-01-31T04:33:17.439Z,0.00
2019-01-31T04:34:17.439Z,0.00
2019-01-31T04:35:17.424Z,0.00
2019-01-31T04:36:17.427Z,0.00
2019-01-31T04:37:17.397Z,0.00
2019-01-31T04:38:19.727Z,0.00
2019-01-31T04:39:17.395Z,0.00
2019-01-31T04:40:17.369Z,0.00
2019-01-31T04:41:17.381Z,0.00
2019-01-31T04:42:17.338Z,0.00
2019-01-31T04:43:17.342Z,0.00
2019-01-31T04:44:17.317Z,0.00
2019-01-31T04:45:17.307Z,0.00
2019-01-31T04:46:17.313Z,0.00
2019-01-31T04:47:17.299Z,0.00
2019-01-31T04:48:17.280Z,0.00
2019-01-31T04:49:17.324Z,0.00
2019-01-31T04:50:17.252Z,0.00
2019-01-31T04:51:17.276Z,0.00
2019-01-31T04:52:17.234Z,0.00
2019-01-31T04:53:17.227Z,0.00
2019-01-31T04:54:17.271Z,0.00
2019-01-31T04:55:17.195Z,0.00
2019-01-31T04:56:17.198Z,0.00
2019-01-31T04:57:17.201Z,0.00
2019-01-31T04:58:17.168Z,0.00
2019-01-31T04:59:17.152Z,0.00
2019-01-31T05:00:17.151Z,0.00
2019-01-31T05:01:17.148Z,0.00
2019-01-31T05:02:17.153Z,0.00
2019-01-31T05:03:17.111Z,0.00
2019-01-31T05:04:17.121Z,0.00
2019-01-31T05:05:17.086Z,0.00
2019-01-31T05:06:17.124Z,0.00
2019-01-31T05:07:17.066Z,0.00
2019-01-31T05:08:17.053Z,0.00
2019-01-31T05:09:17.048Z,0.00
2019-01-31T05:10:17.032Z,0.00
2019-01-31T05:11:17.031Z,0.00
2019-01-31T05:12:17.008Z,0.00
2019-01-31T05:13:17.015Z,0.00
2019-01-31T05:14:17.020Z,0.00
2019-01-31T05:15:17.076Z,0.00
2019-01-31T05:16:16.976Z,0.00
2019-01-31T05:17:16.953Z,0.00
2019-01-31T05:18:16.947Z,0.00
2019-01-31T05:19:16.942Z,0.00
2019-01-31T05:20:16.929Z,0.00
2019-01-31T05:21:16.963Z,0.00
2019-01-31T05:22:16.899Z,0.00
2019-01-31T05:23:16.892Z,0.00
2019-01-31T05:24:16.879Z,0.00
2019-01-31T05:25:16.871Z,0.00
2019-01-31T05:26:23.878Z,0.00
2019-01-31T05:27:24.367Z,0.00
2019-01-31T05:28:16.837Z,0.00
2019-01-31T05:29:16.821Z,0.00
2019-01-31T05:30:16.838Z,0.00
2019-01-31T05:31:16.799Z,0.00
2019-01-31T05:32:16.803Z,0.00
2019-01-31T05:33:16.780Z,0.00
2019-01-31T05:34:16.768Z,0.00
2019-01-31T05:35:16.757Z,0.00
2019-01-31T05:36:16.748Z,0.00
2019-01-31T05:37:16.768Z,0.00
2019-01-31T05:38:17.539Z,0.00
2019-01-31T05:39:16.717Z,0.00
2019-01-31T05:40:16.726Z,0.00
2019-01-31T05:41:16.692Z,0.00
2019-01-31T05:42:16.695Z,0.00
2019-01-31T05:43:16.677Z,0.00
2019-01-31T05:44:16.661Z,0.00
2019-01-31T05:45:16.645Z,0.00
2019-01-31T05:46:18.415Z,0.00
2019-01-31T05:47:16.637Z,0.00
2019-01-31T05:48:16.620Z,0.00
2019-01-31T05:49:16.608Z,0.00
2019-01-31T05:50:16.633Z,0.00
2019-01-31T05:51:16.728Z,0.00
2019-01-31T05:52:16.583Z,0.00
2019-01-31T05:53:16.571Z,0.00
2019-01-31T05:54:16.556Z,0.00
2019-01-31T05:55:16.542Z,0.00
2019-01-31T05:56:16.524Z,0.00
2019-01-31T05:57:16.527Z,0.00
2019-01-31T05:58:16.527Z,0.00
2019-01-31T05:59:16.494Z,0.00
2019-01-31T06:00:16.486Z,0.00
2019-01-31T06:01:16.488Z,0.00
2019-01-31T06:02:16.510Z,0.00
2019-01-31T06:03:16.454Z,0.00
2019-01-31T06:04:16.445Z,0.00
2019-01-31T06:05:16.427Z,0.00
2019-01-31T06:06:16.417Z,0.00
2019-01-31T06:07:16.419Z,0.00
2019-01-31T06:08:16.394Z,0.00
2019-01-31T06:09:16.388Z,0.00
2019-01-31T06:10:16.372Z,0.00
2019-01-31T06:11:16.370Z,0.00
2019-01-31T06:12:16.361Z,0.00
2019-01-31T06:13:16.354Z,0.00
2019-01-31T06:14:16.403Z,0.00
2019-01-31T06:15:16.320Z,0.00
2019-01-31T06:16:16.309Z,0.00
2019-01-31T06:17:16.511Z,0.00
2019-01-31T06:18:16.288Z,0.00
2019-01-31T06:19:16.542Z,0.00
2019-01-31T06:20:16.275Z,0.00
2019-01-31T06:21:16.249Z,0.00
2019-01-31T06:22:16.265Z,0.00
2019-01-31T06:23:16.248Z,0.00
2019-01-31T06:24:16.228Z,0.00
2019-01-31T06:25:16.215Z,0.00
2019-01-31T06:26:16.207Z,0.00
2019-01-31T06:27:16.182Z,0.00
2019-01-31T06:28:16.190Z,0.00
2019-01-31T06:29:16.164Z,0.00
2019-01-31T06:30:16.164Z,0.00
2019-01-31T06:31:16.144Z,0.00
2019-01-31T06:32:16.134Z,0.00
2019-01-31T06:33:16.129Z,0.00
2019-01-31T06:34:16.110Z,0.00
2019-01-31T06:35:16.253Z,0.00
2019-01-31T06:36:16.101Z,0.00
2019-01-31T06:37:16.075Z,0.00
2019-01-31T06:38:16.073Z,0.00
2019-01-31T06:39:16.055Z,0.00
2019-01-31T06:40:16.044Z,0.00
2019-01-31T06:41:18.777Z,0.00
2019-01-31T06:42:16.019Z,0.00
2019-01-31T06:43:16.020Z,0.00
2019-01-31T06:44:16.004Z,0.00
2019-01-31T06:45:15.987Z,0.00
2019-01-31T06:46:15.998Z,0.00
2019-01-31T06:47:15.967Z,0.00
2019-01-31T06:48:15.965Z,0.00
2019-01-31T06:49:15.943Z,0.00
2019-01-31T06:50:15.933Z,0.00
2019-01-31T06:51:15.930Z,0.00
2019-01-31T06:52:15.915Z,0.00
2019-01-31T06:53:15.915Z,0.00
2019-01-31T06:54:15.890Z,0.00
2019-01-31T06:55:15.880Z,0.00
2019-01-31T06:56:15.867Z,0.00
2019-01-31T06:57:15.862Z,0.00
2019-01-31T06:58:15.856Z,4.00
2019-01-31T06:59:15.840Z,4.00
2019-01-31T07:00:15.820Z,0.00
2019-01-31T07:01:15.938Z,0.00
2019-01-31T07:02:15.801Z,0.00
2019-01-31T07:03:15.801Z,4.00
2019-01-31T07:04:15.780Z,4.00
2019-01-31T07:05:15.767Z,4.00
2019-01-31T07:06:15.754Z,0.00
2019-01-31T07:07:15.775Z,4.00
2019-01-31T07:08:15.746Z,4.00
2019-01-31T07:09:15.764Z,4.00
2019-01-31T07:10:15.712Z,4.00
2019-01-31T07:11:15.699Z,4.00
2019-01-31T07:12:15.688Z,4.00
2019-01-31T07:13:15.693Z,4.00
2019-01-31T07:14:15.671Z,8.00
2019-01-31T07:15:15.660Z,4.00
2019-01-31T07:16:15.643Z,4.00
2019-01-31T07:17:18.298Z,8.00
2019-01-31T07:18:15.644Z,8.00
2019-01-31T07:19:15.620Z,8.00
2019-01-31T07:20:15.634Z,8.00
2019-01-31T07:21:15.590Z,8.00
2019-01-31T07:22:15.582Z,12.00
2019-01-31T07:23:15.622Z,8.00
2019-01-31T07:24:15.563Z,8.00
2019-01-31T07:25:15.546Z,12.00
2019-01-31T07:26:15.541Z,12.00
2019-01-31T07:27:15.523Z,12.00
2019-01-31T07:28:15.515Z,12.00
2019-01-31T07:29:15.515Z,12.00
2019-01-31T07:30:15.492Z,16.00
2019-01-31T07:31:15.484Z,16.00
2019-01-31T07:32:15.485Z,16.00
2019-01-31T07:33:15.458Z,16.00
2019-01-31T07:34:15.462Z,20.00
2019-01-31T07:35:15.441Z,20.00
2019-01-31T07:36:15.444Z,20.00
2019-01-31T07:37:15.414Z,20.00
2019-01-31T07:38:15.403Z,20.00
2019-01-31T07:39:15.407Z,20.00
2019-01-31T07:40:15.383Z,24.00
2019-01-31T07:41:15.370Z,24.00
2019-01-31T07:42:15.404Z,24.00
2019-01-31T07:43:15.351Z,28.00
2019-01-31T07:44:15.356Z,28.00
2019-01-31T07:45:15.332Z,24.00
2019-01-31T07:46:15.331Z,28.00
2019-01-31T07:47:15.311Z,28.00
2019-01-31T07:48:15.299Z,28.00
2019-01-31T07:49:15.294Z,28.00
2019-01-31T07:50:15.275Z,28.00
2019-01-31T07:51:15.261Z,36.00
2019-01-31T07:52:15.249Z,32.00
2019-01-31T07:53:15.241Z,36.00
2019-01-31T07:54:15.244Z,32.00
2019-01-31T07:55:15.233Z,32.00
2019-01-31T07:56:15.204Z,36.00
2019-01-31T07:57:15.194Z,32.00
2019-01-31T07:58:15.185Z,32.00
2019-01-31T07:59:15.184Z,32.00
2019-01-31T08:00:15.165Z,32.00
2019-01-31T08:01:15.170Z,32.00
2019-01-31T08:02:15.140Z,28.00
2019-01-31T08:03:15.128Z,28.00
2019-01-31T08:04:15.132Z,24.00
2019-01-31T08:05:15.108Z,24.00
2019-01-31T08:06:15.097Z,24.00
2019-01-31T08:07:15.087Z,28.00
2019-01-31T08:08:15.076Z,28.00
2019-01-31T08:09:15.073Z,28.00
2019-01-31T08:10:15.051Z,32.00
2019-01-31T08:11:15.041Z,32.00
2019-01-31T08:12:15.030Z,32.00
2019-01-31T08:13:15.031Z,32.00
2019-01-31T08:14:15.027Z,36.00
2019-01-31T08:15:14.997Z,36.00
2019-01-31T08:16:14.995Z,40.00
2019-01-31T08:17:14.975Z,44.00
2019-01-31T08:18:14.979Z,40.00
2019-01-31T08:19:14.968Z,44.00
2019-01-31T08:20:14.947Z,48.00
2019-01-31T08:21:14.930Z,52.00
2019-01-31T08:22:14.919Z,48.00
2019-01-31T08:23:14.908Z,48.00
2019-01-31T08:24:14.918Z,56.00
2019-01-31T08:25:14.901Z,60.00
2019-01-31T08:26:14.876Z,60.00
2019-01-31T08:27:14.865Z,56.00
2019-01-31T08:28:14.854Z,52.00
2019-01-31T08:29:14.878Z,52.00
2019-01-31T08:30:14.847Z,52.00
2019-01-31T08:31:14.840Z,48.00
2019-01-31T08:32:14.811Z,52.00
2019-01-31T08:33:14.801Z,52.00
2019-01-31T08:34:14.789Z,48.00
2019-01-31T08:35:14.789Z,52.00
2019-01-31T08:36:14.768Z,48.00
2019-01-31T08:37:14.756Z,52.00
2019-01-31T08:38:14.746Z,48.00
2019-01-31T08:39:14.744Z,48.00
2019-01-31T08:40:14.735Z,44.00
2019-01-31T08:41:14.740Z,44.00
2019-01-31T08:42:14.699Z,44.00
2019-01-31T08:43:14.694Z,44.00
2019-01-31T08:44:14.678Z,44.00
2019-01-31T08:45:14.689Z,40.00
2019-01-31T08:46:14.661Z,40.00
2019-01-31T08:47:14.647Z,40.00
2019-01-31T08:48:14.649Z,40.00
2019-01-31T08:49:14.633Z,36.00
2019-01-31T08:50:14.629Z,40.00
2019-01-31T08:51:14.645Z,36.00
2019-01-31T08:52:14.590Z,40.00
2019-01-31T08:53:14.582Z,36.00
2019-01-31T08:54:14.570Z,36.00
2019-01-31T08:55:14.577Z,36.00
2019-01-31T08:56:14.563Z,32.00
2019-01-31T08:57:14.539Z,32.00
2019-01-31T08:58:14.524Z,36.00
2019-01-31T08:59:14.515Z,36.00
2019-01-31T09:00:14.514Z,36.00
2019-01-31T09:01:14.495Z,36.00
2019-01-31T09:02:14.482Z,32.00
2019-01-31T09:03:14.590Z,36.00
2019-01-31T09:04:14.480Z,32.00
2019-01-31T09:05:14.459Z,32.00
2019-01-31T09:06:15.077Z,32.00
2019-01-31T09:07:14.448Z,28.00
2019-01-31T09:08:14.415Z,28.00
2019-01-31T09:09:14.403Z,32.00
2019-01-31T09:10:14.407Z,28.00
2019-01-31T09:11:14.383Z,28.00
2019-01-31T09:12:15.580Z,28.00
2019-01-31T09:13:14.361Z,28.00
2019-01-31T09:14:14.375Z,28.00
2019-01-31T09:15:14.351Z,28.00
2019-01-31T09:16:14.327Z,28.00
2019-01-31T09:17:14.316Z,28.00
2019-01-31T09:18:14.307Z,28.00
2019-01-31T09:19:14.295Z,28.00
2019-01-31T09:20:14.303Z,28.00
2019-01-31T09:21:14.271Z,28.00
2019-01-31T09:22:14.263Z,32.00
2019-01-31T09:23:14.252Z,32.00
2019-01-31T09:24:14.242Z,32.00
2019-01-31T09:25:14.264Z,32.00
2019-01-31T09:26:14.225Z,28.00
2019-01-31T09:27:14.207Z,28.00
2019-01-31T09:28:14.200Z,28.00
2019-01-31T09:29:14.184Z,28.00
2019-01-31T09:30:14.193Z,28.00
2019-01-31T09:31:14.176Z,32.00
2019-01-31T09:32:14.151Z,32.00
2019-01-31T09:33:14.141Z,32.00
2019-01-31T09:34:14.130Z,32.00
2019-01-31T09:35:14.131Z,28.00
2019-01-31T09:36:14.106Z,28.00
2019-01-31T09:37:14.118Z,28.00
2019-01-31T09:38:14.085Z,28.00
2019-01-31T09:39:14.074Z,28.00
2019-01-31T09:40:14.076Z,24.00
2019-01-31T09:41:14.061Z,28.00
2019-01-31T09:42:14.040Z,24.00
2019-01-31T09:43:14.038Z,24.00
2019-01-31T09:44:14.022Z,24.00
2019-01-31T09:45:14.027Z,24.00
2019-01-31T09:46:13.996Z,24.00
2019-01-31T09:47:13.992Z,28.00
2019-01-31T09:48:13.976Z,28.00
2019-01-31T09:49:13.965Z,32.00
2019-01-31T09:50:14.020Z,32.00
2019-01-31T09:51:13.943Z,36.00
2019-01-31T09:52:13.932Z,40.00
2019-01-31T09:53:13.929Z,44.00
2019-01-31T09:54:13.914Z,48.00
2019-01-31T09:55:13.899Z,52.00
2019-01-31T09:56:13.904Z,56.00
2019-01-31T09:57:13.887Z,60.00
2019-01-31T09:58:13.864Z,64.00
2019-01-31T09:59:13.857Z,64.00
2019-01-31T10:00:13.869Z,64.00
2019-01-31T10:01:13.849Z,72.00
2019-01-31T10:02:13.823Z,72.00
2019-01-31T10:03:13.812Z,76.00
2019-01-31T10:04:13.812Z,80.00
2019-01-31T10:05:13.795Z,80.00
2019-01-31T10:06:13.793Z,80.00
2019-01-31T10:07:13.770Z,80.00
2019-01-31T10:08:13.758Z,76.00
2019-01-31T10:09:15.991Z,72.00
2019-01-31T10:10:13.737Z,72.00
2019-01-31T10:11:13.773Z,68.00
2019-01-31T10:12:13.815Z,64.00
2019-01-31T10:13:13.704Z,60.00
2019-01-31T10:14:13.740Z,56.00
2019-01-31T10:15:13.681Z,52.00
2019-01-31T10:16:13.711Z,52.00
2019-01-31T10:17:13.688Z,48.00
2019-01-31T10:18:13.694Z,44.00
2019-01-31T10:19:13.684Z,40.00
2019-01-31T10:20:13.644Z,36.00
2019-01-31T10:21:13.623Z,36.00
2019-01-31T10:22:13.620Z,36.00
2019-01-31T10:23:13.612Z,32.00
2019-01-31T10:24:13.585Z,32.00
2019-01-31T10:25:13.599Z,28.00
2019-01-31T10:26:13.578Z,28.00
2019-01-31T10:27:13.551Z,28.00
2019-01-31T10:28:13.537Z,28.00
2019-01-31T10:29:13.527Z,32.00
2019-01-31T10:30:14.994Z,32.00
2019-01-31T10:31:13.564Z,32.00
2019-01-31T10:32:13.497Z,32.00
2019-01-31T10:33:13.484Z,36.00
2019-01-31T10:34:13.474Z,36.00
2019-01-31T10:35:13.459Z,40.00
2019-01-31T10:36:13.453Z,40.00
2019-01-31T10:37:13.448Z,40.00
2019-01-31T10:38:13.456Z,40.00
2019-01-31T10:39:13.533Z,40.00
2019-01-31T10:40:13.407Z,40.00
2019-01-31T10:41:13.395Z,40.00
2019-01-31T10:42:13.393Z,36.00
2019-01-31T10:43:13.373Z,32.00
2019-01-31T10:44:13.366Z,32.00
2019-01-31T10:45:13.354Z,32.00
2019-01-31T10:46:13.361Z,32.00
2019-01-31T10:47:13.341Z,28.00
2019-01-31T10:48:13.387Z,28.00
2019-01-31T10:49:13.307Z,32.00
2019-01-31T10:50:13.296Z,32.00
2019-01-31T10:51:13.285Z,32.00
2019-01-31T10:52:13.286Z,36.00
2019-01-31T10:53:13.266Z,36.00
2019-01-31T10:54:13.261Z,40.00
2019-01-31T10:55:13.250Z,40.00
2019-01-31T10:56:13.231Z,40.00
2019-01-31T10:57:13.231Z,44.00
2019-01-31T10:58:13.206Z,40.00
2019-01-31T10:59:13.198Z,44.00
2019-01-31T11:00:13.189Z,40.00
2019-01-31T11:01:13.177Z,44.00
2019-01-31T11:02:13.175Z,48.00
2019-01-31T11:03:13.161Z,48.00
2019-01-31T11:04:13.140Z,48.00
2019-01-31T11:05:13.134Z,52.00
2019-01-31T11:06:13.122Z,52.00
2019-01-31T11:07:13.124Z,56.00
2019-01-31T11:08:13.097Z,60.00
2019-01-31T11:09:13.103Z,56.00
2019-01-31T11:10:13.074Z,60.00
2019-01-31T11:11:13.063Z,64.00
2019-01-31T11:12:13.065Z,68.00
2019-01-31T11:13:13.045Z,68.00
2019-01-31T11:14:13.033Z,72.00
2019-01-31T11:15:13.022Z,76.00
2019-01-31T11:16:13.009Z,76.00
2019-01-31T11:17:13.010Z,76.00
2019-01-31T11:18:13.001Z,80.00
2019-01-31T11:19:12.996Z,80.00
2019-01-31T11:20:12.967Z,88.00
2019-01-31T11:21:12.954Z,92.00
2019-01-31T11:22:12.945Z,92.00
2019-01-31T11:23:12.944Z,100.00
2019-01-31T11:24:12.922Z,96.00
2019-01-31T11:25:12.911Z,96.00
2019-01-31T11:26:12.903Z,96.00
2019-01-31T11:27:12.893Z,96.00
2019-01-31T11:28:12.894Z,104.00
2019-01-31T11:29:12.870Z,104.00
2019-01-31T11:30:12.859Z,104.00
2019-01-31T11:31:12.847Z,104.00
2019-01-31T11:32:12.844Z,104.00
2019-01-31T11:33:12.836Z,104.00
2019-01-31T11:34:12.811Z,104.00
2019-01-31T11:35:12.808Z,104.00
2019-01-31T11:36:12.790Z,108.00
2019-01-31T11:37:12.779Z,116.00
2019-01-31T11:38:12.795Z,116.00
2019-01-31T11:39:12.758Z,116.00
2019-01-31T11:40:12.773Z,112.00
2019-01-31T11:41:12.735Z,116.00
2019-01-31T11:42:12.730Z,112.00
2019-01-31T11:43:12.775Z,108.00
2019-01-31T11:44:12.709Z,104.00
2019-01-31T11:45:12.691Z,104.00
2019-01-31T11:46:12.678Z,100.00
2019-01-31T11:47:12.670Z,104.00
2019-01-31T11:48:12.657Z,100.00
2019-01-31T11:49:12.683Z,104.00
2019-01-31T11:50:12.648Z,104.00
2019-01-31T11:51:12.643Z,104.00
2019-01-31T11:52:12.613Z,104.00
2019-01-31T11:53:12.605Z,104.00
2019-01-31T11:54:12.605Z,104.00
2019-01-31T11:55:12.580Z,104.00
2019-01-31T11:56:12.569Z,104.00
2019-01-31T11:57:12.592Z,108.00
2019-01-31T11:58:12.560Z,112.00
2019-01-31T11:59:12.549Z,116.00
2019-01-31T12:00:12.566Z,120.00
2019-01-31T12:01:12.516Z,120.00
2019-01-31T12:02:12.507Z,120.00
2019-01-31T12:03:12.493Z,116.00
2019-01-31T12:04:12.498Z,116.00
2019-01-31T12:05:12.487Z,116.00
2019-01-31T12:06:12.461Z,112.00
2019-01-31T12:07:12.451Z,108.00
2019-01-31T12:08:12.543Z,108.00
2019-01-31T12:09:12.437Z,104.00
2019-01-31T12:10:12.416Z,100.00
2019-01-31T12:11:12.405Z,96.00
2019-01-31T12:12:12.415Z,92.00
2019-01-31T12:13:22.788Z,88.00
2019-01-31T12:14:13.384Z,88.00
2019-01-31T12:15:12.362Z,88.00
2019-01-31T12:16:12.350Z,84.00
2019-01-31T12:17:12.342Z,84.00
2019-01-31T12:18:12.331Z,88.00
2019-01-31T12:19:12.333Z,88.00
2019-01-31T12:20:12.310Z,92.00
2019-01-31T12:21:12.294Z,92.00
2019-01-31T12:22:12.285Z,92.00
2019-01-31T12:23:12.282Z,92.00
2019-01-31T12:24:16.551Z,92.00
2019-01-31T12:25:12.253Z,92.00
2019-01-31T12:26:14.021Z,88.00
2019-01-31T12:27:12.232Z,88.00
2019-01-31T12:28:12.219Z,88.00
2019-01-31T12:29:12.224Z,88.00
2019-01-31T12:30:12.195Z,88.00
2019-01-31T12:31:12.187Z,88.00
2019-01-31T12:32:12.176Z,88.00
2019-01-31T12:33:12.163Z,92.00
2019-01-31T12:34:12.170Z,92.00
2019-01-31T12:35:12.144Z,92.00
2019-01-31T12:36:12.130Z,92.00
2019-01-31T12:37:12.130Z,92.00
2019-01-31T12:38:12.107Z,88.00
2019-01-31T12:39:12.114Z,88.00
2019-01-31T12:40:12.088Z,84.00
2019-01-31T12:41:12.083Z,80.00
2019-01-31T12:42:12.065Z,80.00
2019-01-31T12:43:12.055Z,76.00
2019-01-31T12:44:12.054Z,76.00
2019-01-31T12:45:12.031Z,76.00
2019-01-31T12:46:12.022Z,76.00
2019-01-31T12:47:12.034Z,76.00
2019-01-31T12:48:11.997Z,76.00
2019-01-31T12:49:12.018Z,76.00
2019-01-31T12:50:11.977Z,76.00
2019-01-31T12:51:11.969Z,76.00
2019-01-31T12:52:11.974Z,76.00
2019-01-31T12:53:11.946Z,76.00
2019-01-31T12:54:11.945Z,76.00
2019-01-31T12:55:11.920Z,80.00
2019-01-31T12:56:11.911Z,76.00
2019-01-31T12:57:11.899Z,80.00
2019-01-31T12:58:11.889Z,76.00
2019-01-31T12:59:11.903Z,80.00
2019-01-31T13:00:11.871Z,80.00
2019-01-31T13:01:11.859Z,80.00
2019-01-31T13:02:11.853Z,76.00
2019-01-31T13:03:11.833Z,76.00
2019-01-31T13:04:11.823Z,76.00
2019-01-31T13:05:11.823Z,76.00